sensor_id;sensor_type;location;lat;lon;timestamp;P1;durP1;ratioP1;P2;durP2;ratioP2
74941;SDS011;63506;49.346;8.798;2022-11-20T00:00:55;15.15;;;13.60;;
74941;SDS011;63506;49.346;8.798;2022-11-20T00:03:21;12.80;;;11.48;;
74941;SDS011;63506;49.346;8.798;2022-11-20T00:05:49;14.63;;;12.52;;
74941;SDS011;63506;49.346;8.798;2022-11-20T00:08:18;13.45;;;9.32;;
74941;SDS011;63506;49.346;8.798;2022-11-20T00:10:46;20.70;;;13.65;;
74941;SDS011;63506;49.346;8.798;2022-11-20T00:13:12;14.40;;;11.40;;
74941;SDS011;63506;49.346;8.798;2022-11-20T00:15:40;17.70;;;13.15;;
74941;SDS011;63506;49.346;8.798;2022-11-20T00:18:08;18.48;;;12.45;;
74941;SDS011;63506;49.346;8.798;2022-11-20T00:20:34;14.63;;;12.57;;
74941;SDS011;63506;49.346;8.798;2022-11-20T00:23:02;16.08;;;12.40;;
74941;SDS011;63506;49.346;8.798;2022-11-20T00:25:31;14.43;;;12.43;;
74941;SDS011;63506;49.346;8.798;2022-11-20T00:27:59;15.00;;;11.82;;
74941;SDS011;63506;49.346;8.798;2022-11-20T00:30:24;15.82;;;9.85;;
74941;SDS011;63506;49.346;8.798;2022-11-20T00:32:53;12.60;;;9.30;;
74941;SDS011;63506;49.346;8.798;2022-11-20T00:35:23;14.70;;;10.80;;
74941;SDS011;63506;49.346;8.798;2022-11-20T00:37:49;21.48;;;11.40;;
74941;SDS011;63506;49.346;8.798;2022-11-20T00:40:15;13.38;;;10.30;;
74941;SDS011;63506;49.346;8.798;2022-11-20T00:42:40;15.77;;;12.07;;
74941;SDS011;63506;49.346;8.798;2022-11-20T00:45:09;16.70;;;11.73;;
74941;SDS011;63506;49.346;8.798;2022-11-20T00:47:39;14.13;;;11.07;;
74941;SDS011;63506;49.346;8.798;2022-11-20T00:50:05;14.30;;;9.50;;
74941;SDS011;63506;49.346;8.798;2022-11-20T00:52:31;15.60;;;12.00;;
74941;SDS011;63506;49.346;8.798;2022-11-20T00:55:00;17.15;;;11.27;;
74941;SDS011;63506;49.346;8.798;2022-11-20T00:57:25;16.45;;;11.00;;
74941;SDS011;63506;49.346;8.798;2022-11-20T00:59:56;11.02;;;9.50;;
74941;SDS011;63506;49.346;8.798;2022-11-20T01:02:22;16.10;;;11.05;;
74941;SDS011;63506;49.346;8.798;2022-11-20T01:04:50;16.48;;;11.00;;
74941;SDS011;63506;49.346;8.798;2022-11-20T01:07:18;16.00;;;10.45;;
74941;SDS011;63506;49.346;8.798;2022-11-20T01:09:44;14.20;;;11.48;;
74941;SDS011;63506;49.346;8.798;2022-11-20T01:12:10;13.30;;;10.55;;
74941;SDS011;63506;49.346;8.798;2022-11-20T01:14:36;13.52;;;10.15;;
74941;SDS011;63506;49.346;8.798;2022-11-20T01:17:06;13.25;;;11.10;;
74941;SDS011;63506;49.346;8.798;2022-11-20T01:19:35;12.98;;;10.90;;
74941;SDS011;63506;49.346;8.798;2022-11-20T01:22:01;13.60;;;12.15;;
74941;SDS011;63506;49.346;8.798;2022-11-20T01:24:29;14.60;;;10.52;;
74941;SDS011;63506;49.346;8.798;2022-11-20T01:26:55;14.65;;;11.13;;
74941;SDS011;63506;49.346;8.798;2022-11-20T01:29:24;13.13;;;11.20;;
74941;SDS011;63506;49.346;8.798;2022-11-20T01:31:52;15.13;;;10.38;;
74941;SDS011;63506;49.346;8.798;2022-11-20T01:34:21;18.38;;;14.23;;
74941;SDS011;63506;49.346;8.798;2022-11-20T01:36:47;15.63;;;11.48;;
74941;SDS011;63506;49.346;8.798;2022-11-20T01:39:15;10.45;;;8.52;;
74941;SDS011;63506;49.346;8.798;2022-11-20T01:41:46;14.32;;;11.57;;
74941;SDS011;63506;49.346;8.798;2022-11-20T01:50:06;14.10;;;12.57;;
74941;SDS011;63506;49.346;8.798;2022-11-20T01:52:45;14.32;;;12.80;;
74941;SDS011;63506;49.346;8.798;2022-11-20T01:55:15;14.93;;;12.50;;
74941;SDS011;63506;49.346;8.798;2022-11-20T01:57:43;16.88;;;13.15;;
74941;SDS011;63506;49.346;8.798;2022-11-20T02:00:15;12.98;;;10.95;;
74941;SDS011;63506;49.346;8.798;2022-11-20T02:02:46;20.25;;;13.13;;
74941;SDS011;63506;49.346;8.798;2022-11-20T02:05:24;18.10;;;12.73;;
74941;SDS011;63506;49.346;8.798;2022-11-20T02:07:54;13.43;;;10.98;;
74941;SDS011;63506;49.346;8.798;2022-11-20T02:10:21;15.80;;;12.93;;
74941;SDS011;63506;49.346;8.798;2022-11-20T02:12:47;14.68;;;10.50;;
74941;SDS011;63506;49.346;8.798;2022-11-20T02:15:32;12.48;;;9.15;;
74941;SDS011;63506;49.346;8.798;2022-11-20T02:17:59;17.23;;;13.15;;
74941;SDS011;63506;49.346;8.798;2022-11-20T02:20:25;14.45;;;11.40;;
74941;SDS011;63506;49.346;8.798;2022-11-20T02:22:53;17.05;;;13.00;;
74941;SDS011;63506;49.346;8.798;2022-11-20T02:25:20;15.73;;;11.55;;
74941;SDS011;63506;49.346;8.798;2022-11-20T02:27:49;15.07;;;11.35;;
74941;SDS011;63506;49.346;8.798;2022-11-20T02:30:15;14.60;;;11.23;;
74941;SDS011;63506;49.346;8.798;2022-11-20T02:32:46;12.43;;;10.82;;
74941;SDS011;63506;49.346;8.798;2022-11-20T02:37:44;15.35;;;11.75;;
74941;SDS011;63506;49.346;8.798;2022-11-20T02:40:10;16.60;;;11.02;;
74941;SDS011;63506;49.346;8.798;2022-11-20T02:42:36;11.63;;;10.35;;
74941;SDS011;63506;49.346;8.798;2022-11-20T02:45:05;13.40;;;9.07;;
74941;SDS011;63506;49.346;8.798;2022-11-20T02:47:32;15.00;;;12.27;;
74941;SDS011;63506;49.346;8.798;2022-11-20T02:49:58;18.85;;;12.73;;
74941;SDS011;63506;49.346;8.798;2022-11-20T02:52:26;16.27;;;12.43;;
74941;SDS011;63506;49.346;8.798;2022-11-20T02:54:52;14.30;;;11.07;;
74941;SDS011;63506;49.346;8.798;2022-11-20T02:57:18;16.92;;;11.18;;
74941;SDS011;63506;49.346;8.798;2022-11-20T02:59:44;15.43;;;11.98;;
74941;SDS011;63506;49.346;8.798;2022-11-20T03:02:09;13.02;;;11.18;;
74941;SDS011;63506;49.346;8.798;2022-11-20T03:04:35;17.17;;;11.95;;
74941;SDS011;63506;49.346;8.798;2022-11-20T03:07:03;16.77;;;11.77;;
74941;SDS011;63506;49.346;8.798;2022-11-20T03:09:31;16.00;;;11.90;;
74941;SDS011;63506;49.346;8.798;2022-11-20T03:12:00;17.88;;;14.02;;
74941;SDS011;63506;49.346;8.798;2022-11-20T03:14:26;17.35;;;13.52;;
74941;SDS011;63506;49.346;8.798;2022-11-20T03:16:51;14.95;;;12.73;;
74941;SDS011;63506;49.346;8.798;2022-11-20T03:19:20;15.40;;;12.45;;
74941;SDS011;63506;49.346;8.798;2022-11-20T03:21:48;21.52;;;12.40;;
74941;SDS011;63506;49.346;8.798;2022-11-20T03:24:17;15.13;;;11.88;;
74941;SDS011;63506;49.346;8.798;2022-11-20T03:26:42;16.42;;;12.25;;
74941;SDS011;63506;49.346;8.798;2022-11-20T03:29:08;20.40;;;14.10;;
74941;SDS011;63506;49.346;8.798;2022-11-20T03:31:35;19.25;;;13.38;;
74941;SDS011;63506;49.346;8.798;2022-11-20T03:34:04;20.00;;;12.13;;
74941;SDS011;63506;49.346;8.798;2022-11-20T03:36:32;26.23;;;16.60;;
74941;SDS011;63506;49.346;8.798;2022-11-20T03:38:58;19.20;;;13.88;;
74941;SDS011;63506;49.346;8.798;2022-11-20T03:41:27;17.98;;;13.05;;
74941;SDS011;63506;49.346;8.798;2022-11-20T03:43:56;18.17;;;15.07;;
74941;SDS011;63506;49.346;8.798;2022-11-20T03:46:23;21.98;;;14.02;;
74941;SDS011;63506;49.346;8.798;2022-11-20T03:48:49;16.20;;;14.07;;
74941;SDS011;63506;49.346;8.798;2022-11-20T03:53:47;23.27;;;14.63;;
74941;SDS011;63506;49.346;8.798;2022-11-20T03:56:14;18.92;;;15.00;;
74941;SDS011;63506;49.346;8.798;2022-11-20T03:58:43;17.90;;;12.70;;
74941;SDS011;63506;49.346;8.798;2022-11-20T04:01:10;17.58;;;13.40;;
74941;SDS011;63506;49.346;8.798;2022-11-20T04:03:41;14.45;;;10.77;;
74941;SDS011;63506;49.346;8.798;2022-11-20T04:06:08;17.15;;;12.32;;
74941;SDS011;63506;49.346;8.798;2022-11-20T04:08:37;14.60;;;13.07;;
74941;SDS011;63506;49.346;8.798;2022-11-20T04:11:13;16.17;;;13.45;;
74941;SDS011;63506;49.346;8.798;2022-11-20T04:13:39;17.48;;;12.10;;
74941;SDS011;63506;49.346;8.798;2022-11-20T04:16:06;22.35;;;16.40;;
74941;SDS011;63506;49.346;8.798;2022-11-20T04:22:19;20.88;;;13.00;;
74941;SDS011;63506;49.346;8.798;2022-11-20T04:24:48;21.42;;;14.48;;
74941;SDS011;63506;49.346;8.798;2022-11-20T04:27:16;15.15;;;13.20;;
74941;SDS011;63506;49.346;8.798;2022-11-20T04:29:44;21.88;;;14.55;;
74941;SDS011;63506;49.346;8.798;2022-11-20T04:32:10;17.60;;;13.70;;
74941;SDS011;63506;49.346;8.798;2022-11-20T04:34:36;19.40;;;12.93;;
74941;SDS011;63506;49.346;8.798;2022-11-20T04:37:04;16.50;;;12.63;;
74941;SDS011;63506;49.346;8.798;2022-11-20T04:39:32;16.08;;;13.40;;
74941;SDS011;63506;49.346;8.798;2022-11-20T04:42:00;15.85;;;11.73;;
74941;SDS011;63506;49.346;8.798;2022-11-20T04:44:47;16.73;;;12.10;;
74941;SDS011;63506;49.346;8.798;2022-11-20T04:47:16;13.13;;;11.20;;
74941;SDS011;63506;49.346;8.798;2022-11-20T04:49:41;18.50;;;11.82;;
74941;SDS011;63506;49.346;8.798;2022-11-20T04:52:07;15.93;;;11.85;;
74941;SDS011;63506;49.346;8.798;2022-11-20T04:54:35;21.85;;;13.75;;
74941;SDS011;63506;49.346;8.798;2022-11-20T04:57:01;17.02;;;10.35;;
74941;SDS011;63506;49.346;8.798;2022-11-20T04:59:29;11.60;;;8.98;;
74941;SDS011;63506;49.346;8.798;2022-11-20T05:01:57;11.18;;;9.73;;
74941;SDS011;63506;49.346;8.798;2022-11-20T05:04:26;11.73;;;9.60;;
74941;SDS011;63506;49.346;8.798;2022-11-20T05:06:51;11.93;;;9.02;;
74941;SDS011;63506;49.346;8.798;2022-11-20T05:09:19;12.20;;;8.70;;
74941;SDS011;63506;49.346;8.798;2022-11-20T05:11:45;11.63;;;8.05;;
74941;SDS011;63506;49.346;8.798;2022-11-20T05:14:11;12.18;;;9.50;;
74941;SDS011;63506;49.346;8.798;2022-11-20T05:16:39;9.52;;;7.47;;
74941;SDS011;63506;49.346;8.798;2022-11-20T05:19:05;11.65;;;9.40;;
74941;SDS011;63506;49.346;8.798;2022-11-20T05:21:31;13.25;;;9.57;;
74941;SDS011;63506;49.346;8.798;2022-11-20T05:24:00;15.10;;;11.20;;
74941;SDS011;63506;49.346;8.798;2022-11-20T05:26:26;12.82;;;10.48;;
74941;SDS011;63506;49.346;8.798;2022-11-20T05:28:54;15.13;;;10.48;;
74941;SDS011;63506;49.346;8.798;2022-11-20T05:31:21;11.27;;;9.25;;
74941;SDS011;63506;49.346;8.798;2022-11-20T05:33:50;11.63;;;9.10;;
74941;SDS011;63506;49.346;8.798;2022-11-20T05:36:18;8.85;;;7.95;;
74941;SDS011;63506;49.346;8.798;2022-11-20T05:38:47;9.68;;;7.82;;
74941;SDS011;63506;49.346;8.798;2022-11-20T05:41:13;13.35;;;9.73;;
74941;SDS011;63506;49.346;8.798;2022-11-20T05:43:40;11.93;;;10.18;;
74941;SDS011;63506;49.346;8.798;2022-11-20T05:46:07;11.90;;;9.05;;
74941;SDS011;63506;49.346;8.798;2022-11-20T05:48:36;12.05;;;8.38;;
74941;SDS011;63506;49.346;8.798;2022-11-20T05:51:03;12.20;;;10.32;;
74941;SDS011;63506;49.346;8.798;2022-11-20T05:53:29;13.85;;;10.35;;
74941;SDS011;63506;49.346;8.798;2022-11-20T05:56:05;11.45;;;9.80;;
74941;SDS011;63506;49.346;8.798;2022-11-20T05:58:33;15.88;;;10.05;;
74941;SDS011;63506;49.346;8.798;2022-11-20T06:01:03;14.82;;;12.02;;
74941;SDS011;63506;49.346;8.798;2022-11-20T06:03:29;16.42;;;9.40;;
74941;SDS011;63506;49.346;8.798;2022-11-20T06:05:55;11.70;;;8.68;;
74941;SDS011;63506;49.346;8.798;2022-11-20T06:08:21;14.93;;;10.25;;
74941;SDS011;63506;49.346;8.798;2022-11-20T06:10:49;12.63;;;9.80;;
74941;SDS011;63506;49.346;8.798;2022-11-20T06:13:15;15.68;;;11.00;;
74941;SDS011;63506;49.346;8.798;2022-11-20T06:15:41;11.90;;;10.05;;
74941;SDS011;63506;49.346;8.798;2022-11-20T06:18:09;11.45;;;9.48;;
74941;SDS011;63506;49.346;8.798;2022-11-20T06:20:35;12.13;;;9.60;;
74941;SDS011;63506;49.346;8.798;2022-11-20T06:23:03;16.83;;;9.95;;
74941;SDS011;63506;49.346;8.798;2022-11-20T06:25:31;10.77;;;9.68;;
74941;SDS011;63506;49.346;8.798;2022-11-20T06:28:00;17.40;;;11.63;;
74941;SDS011;63506;49.346;8.798;2022-11-20T06:30:26;13.80;;;10.25;;
74941;SDS011;63506;49.346;8.798;2022-11-20T06:32:54;12.38;;;9.70;;
74941;SDS011;63506;49.346;8.798;2022-11-20T06:35:20;14.63;;;10.45;;
74941;SDS011;63506;49.346;8.798;2022-11-20T06:37:45;17.13;;;10.63;;
74941;SDS011;63506;49.346;8.798;2022-11-20T06:40:11;14.07;;;10.25;;
74941;SDS011;63506;49.346;8.798;2022-11-20T06:42:40;9.82;;;8.80;;
74941;SDS011;63506;49.346;8.798;2022-11-20T06:45:06;16.05;;;11.15;;
74941;SDS011;63506;49.346;8.798;2022-11-20T06:47:34;14.45;;;8.57;;
74941;SDS011;63506;49.346;8.798;2022-11-20T06:49:59;10.82;;;7.85;;
74941;SDS011;63506;49.346;8.798;2022-11-20T06:52:28;11.35;;;8.35;;
74941;SDS011;63506;49.346;8.798;2022-11-20T06:54:56;13.90;;;9.57;;
74941;SDS011;63506;49.346;8.798;2022-11-20T06:57:22;9.90;;;8.88;;
74941;SDS011;63506;49.346;8.798;2022-11-20T06:59:48;13.70;;;9.35;;
74941;SDS011;63506;49.346;8.798;2022-11-20T07:02:16;13.75;;;8.93;;
74941;SDS011;63506;49.346;8.798;2022-11-20T07:04:42;11.98;;;9.95;;
74941;SDS011;63506;49.346;8.798;2022-11-20T07:07:10;12.63;;;9.10;;
74941;SDS011;63506;49.346;8.798;2022-11-20T07:09:36;16.80;;;9.23;;
74941;SDS011;63506;49.346;8.798;2022-11-20T07:12:02;9.80;;;8.80;;
74941;SDS011;63506;49.346;8.798;2022-11-20T07:14:30;12.02;;;9.70;;
74941;SDS011;63506;49.346;8.798;2022-11-20T07:17:01;12.32;;;9.57;;
74941;SDS011;63506;49.346;8.798;2022-11-20T07:19:29;11.60;;;8.48;;
74941;SDS011;63506;49.346;8.798;2022-11-20T07:21:57;9.43;;;7.15;;
74941;SDS011;63506;49.346;8.798;2022-11-20T07:24:25;10.68;;;7.88;;
74941;SDS011;63506;49.346;8.798;2022-11-20T07:26:54;13.60;;;7.35;;
74941;SDS011;63506;49.346;8.798;2022-11-20T07:29:22;11.20;;;7.35;;
74941;SDS011;63506;49.346;8.798;2022-11-20T07:31:48;10.23;;;8.15;;
74941;SDS011;63506;49.346;8.798;2022-11-20T07:34:14;11.23;;;8.77;;
74941;SDS011;63506;49.346;8.798;2022-11-20T07:36:44;14.13;;;10.02;;
74941;SDS011;63506;49.346;8.798;2022-11-20T07:39:15;12.88;;;8.32;;
74941;SDS011;63506;49.346;8.798;2022-11-20T07:41:43;10.52;;;8.30;;
74941;SDS011;63506;49.346;8.798;2022-11-20T07:44:11;9.93;;;7.40;;
74941;SDS011;63506;49.346;8.798;2022-11-20T07:46:37;10.90;;;7.30;;
74941;SDS011;63506;49.346;8.798;2022-11-20T07:49:06;7.32;;;6.53;;
74941;SDS011;63506;49.346;8.798;2022-11-20T07:51:37;8.73;;;7.82;;
74941;SDS011;63506;49.346;8.798;2022-11-20T07:54:03;11.30;;;7.15;;
74941;SDS011;63506;49.346;8.798;2022-11-20T07:56:29;6.65;;;5.57;;
74941;SDS011;63506;49.346;8.798;2022-11-20T07:58:55;10.95;;;6.72;;
74941;SDS011;63506;49.346;8.798;2022-11-20T08:01:21;6.90;;;5.97;;
74941;SDS011;63506;49.346;8.798;2022-11-20T08:03:46;10.50;;;7.28;;
74941;SDS011;63506;49.346;8.798;2022-11-20T08:06:12;8.25;;;6.88;;
74941;SDS011;63506;49.346;8.798;2022-11-20T08:08:40;9.98;;;6.97;;
74941;SDS011;63506;49.346;8.798;2022-11-20T08:11:06;8.20;;;6.28;;
74941;SDS011;63506;49.346;8.798;2022-11-20T08:13:51;7.18;;;6.40;;
74941;SDS011;63506;49.346;8.798;2022-11-20T08:16:35;7.88;;;6.47;;
74941;SDS011;63506;49.346;8.798;2022-11-20T08:19:03;8.30;;;5.93;;
74941;SDS011;63506;49.346;8.798;2022-11-20T08:21:30;7.13;;;5.82;;
74941;SDS011;63506;49.346;8.798;2022-11-20T08:23:58;7.97;;;5.60;;
74941;SDS011;63506;49.346;8.798;2022-11-20T08:26:24;8.18;;;7.10;;
74941;SDS011;63506;49.346;8.798;2022-11-20T08:28:54;5.93;;;4.80;;
74941;SDS011;63506;49.346;8.798;2022-11-20T08:31:20;8.07;;;5.18;;
74941;SDS011;63506;49.346;8.798;2022-11-20T08:33:46;7.93;;;6.47;;
74941;SDS011;63506;49.346;8.798;2022-11-20T08:36:20;8.82;;;5.93;;
74941;SDS011;63506;49.346;8.798;2022-11-20T08:38:50;9.73;;;5.72;;
74941;SDS011;63506;49.346;8.798;2022-11-20T08:41:18;6.22;;;5.55;;
74941;SDS011;63506;49.346;8.798;2022-11-20T08:43:55;8.68;;;5.30;;
74941;SDS011;63506;49.346;8.798;2022-11-20T08:46:23;11.52;;;5.82;;
74941;SDS011;63506;49.346;8.798;2022-11-20T08:48:49;5.78;;;4.82;;
74941;SDS011;63506;49.346;8.798;2022-11-20T08:51:16;5.68;;;5.07;;
74941;SDS011;63506;49.346;8.798;2022-11-20T08:53:46;8.05;;;6.13;;
74941;SDS011;63506;49.346;8.798;2022-11-20T08:56:16;6.10;;;5.45;;
74941;SDS011;63506;49.346;8.798;2022-11-20T08:58:43;7.72;;;5.15;;
74941;SDS011;63506;49.346;8.798;2022-11-20T09:01:10;7.80;;;5.93;;
74941;SDS011;63506;49.346;8.798;2022-11-20T09:03:38;5.93;;;4.43;;
74941;SDS011;63506;49.346;8.798;2022-11-20T09:06:05;7.53;;;5.07;;
74941;SDS011;63506;49.346;8.798;2022-11-20T09:08:32;9.52;;;5.38;;
74941;SDS011;63506;49.346;8.798;2022-11-20T09:10:58;9.50;;;8.30;;
74941;SDS011;63506;49.346;8.798;2022-11-20T09:13:27;6.68;;;5.97;;
74941;SDS011;63506;49.346;8.798;2022-11-20T09:15:54;17.15;;;15.45;;
74941;SDS011;63506;49.346;8.798;2022-11-20T09:18:20;35.22;;;31.38;;
74941;SDS011;63506;49.346;8.798;2022-11-20T09:20:49;17.00;;;15.23;;
74941;SDS011;63506;49.346;8.798;2022-11-20T09:23:15;11.85;;;9.90;;
74941;SDS011;63506;49.346;8.798;2022-11-20T09:25:44;14.07;;;10.80;;
74941;SDS011;63506;49.346;8.798;2022-11-20T09:28:10;23.73;;;18.27;;
74941;SDS011;63506;49.346;8.798;2022-11-20T09:30:38;14.00;;;10.85;;
74941;SDS011;63506;49.346;8.798;2022-11-20T09:33:07;15.35;;;13.82;;
74941;SDS011;63506;49.346;8.798;2022-11-20T09:35:36;11.48;;;9.10;;
74941;SDS011;63506;49.346;8.798;2022-11-20T09:38:07;14.07;;;9.40;;
74941;SDS011;63506;49.346;8.798;2022-11-20T09:40:38;9.70;;;7.57;;
74941;SDS011;63506;49.346;8.798;2022-11-20T09:51:05;7.97;;;6.32;;
74941;SDS011;63506;49.346;8.798;2022-11-20T09:56:08;6.47;;;5.70;;
74941;SDS011;63506;49.346;8.798;2022-11-20T09:58:37;7.10;;;5.55;;
74941;SDS011;63506;49.346;8.798;2022-11-20T10:01:15;6.80;;;6.15;;
74941;SDS011;63506;49.346;8.798;2022-11-20T10:06:17;7.13;;;5.88;;
74941;SDS011;63506;49.346;8.798;2022-11-20T10:11:30;6.45;;;5.53;;
74941;SDS011;63506;49.346;8.798;2022-11-20T10:30:12;6.13;;;5.55;;
74941;SDS011;63506;49.346;8.798;2022-11-20T10:32:42;8.73;;;5.53;;
74941;SDS011;63506;49.346;8.798;2022-11-20T10:35:20;6.10;;;5.53;;
74941;SDS011;63506;49.346;8.798;2022-11-20T10:37:49;5.82;;;5.10;;
74941;SDS011;63506;49.346;8.798;2022-11-20T10:40:23;7.07;;;5.88;;
74941;SDS011;63506;49.346;8.798;2022-11-20T10:42:55;7.22;;;6.53;;
74941;SDS011;63506;49.346;8.798;2022-11-20T10:45:30;11.98;;;8.25;;
74941;SDS011;63506;49.346;8.798;2022-11-20T10:48:16;11.40;;;8.05;;
74941;SDS011;63506;49.346;8.798;2022-11-20T10:51:30;6.93;;;6.07;;
74941;SDS011;63506;49.346;8.798;2022-11-20T11:01:53;6.55;;;4.35;;
74941;SDS011;63506;49.346;8.798;2022-11-20T11:06:51;4.22;;;3.47;;
74941;SDS011;63506;49.346;8.798;2022-11-20T11:09:24;5.15;;;4.13;;
74941;SDS011;63506;49.346;8.798;2022-11-20T11:11:53;4.05;;;3.33;;
74941;SDS011;63506;49.346;8.798;2022-11-20T11:14:21;4.03;;;3.63;;
74941;SDS011;63506;49.346;8.798;2022-11-20T11:16:57;4.75;;;3.17;;
74941;SDS011;63506;49.346;8.798;2022-11-20T11:19:23;5.57;;;3.58;;
74941;SDS011;63506;49.346;8.798;2022-11-20T11:21:53;6.43;;;3.95;;
74941;SDS011;63506;49.346;8.798;2022-11-20T11:24:20;4.70;;;4.22;;
74941;SDS011;63506;49.346;8.798;2022-11-20T11:26:55;4.28;;;3.88;;
74941;SDS011;63506;49.346;8.798;2022-11-20T11:29:21;4.93;;;4.05;;
74941;SDS011;63506;49.346;8.798;2022-11-20T11:31:50;5.55;;;4.70;;
74941;SDS011;63506;49.346;8.798;2022-11-20T11:34:16;5.20;;;4.25;;
74941;SDS011;63506;49.346;8.798;2022-11-20T11:36:49;6.65;;;4.78;;
74941;SDS011;63506;49.346;8.798;2022-11-20T11:39:18;6.80;;;3.83;;
74941;SDS011;63506;49.346;8.798;2022-11-20T11:41:44;3.38;;;3.08;;
74941;SDS011;63506;49.346;8.798;2022-11-20T11:46:58;5.57;;;4.28;;
74941;SDS011;63506;49.346;8.798;2022-11-20T11:49:26;7.35;;;4.80;;
74941;SDS011;63506;49.346;8.798;2022-11-20T11:54:23;6.15;;;4.05;;
74941;SDS011;63506;49.346;8.798;2022-11-20T11:56:50;7.50;;;4.05;;
74941;SDS011;63506;49.346;8.798;2022-11-20T11:59:32;8.63;;;4.53;;
74941;SDS011;63506;49.346;8.798;2022-11-20T12:02:11;8.40;;;4.68;;
74941;SDS011;63506;49.346;8.798;2022-11-20T12:07:32;5.50;;;3.97;;
74941;SDS011;63506;49.346;8.798;2022-11-20T12:10:04;4.88;;;3.97;;
74941;SDS011;63506;49.346;8.798;2022-11-20T12:12:32;6.20;;;4.50;;
74941;SDS011;63506;49.346;8.798;2022-11-20T12:15:06;4.40;;;3.15;;
74941;SDS011;63506;49.346;8.798;2022-11-20T12:17:37;5.05;;;3.85;;
74941;SDS011;63506;49.346;8.798;2022-11-20T12:20:15;6.35;;;3.10;;
74941;SDS011;63506;49.346;8.798;2022-11-20T12:22:44;4.85;;;3.58;;
74941;SDS011;63506;49.346;8.798;2022-11-20T12:25:29;6.32;;;3.67;;
74941;SDS011;63506;49.346;8.798;2022-11-20T12:30:27;2.63;;;2.22;;
74941;SDS011;63506;49.346;8.798;2022-11-20T12:33:04;4.75;;;3.10;;
74941;SDS011;63506;49.346;8.798;2022-11-20T12:35:44;4.07;;;3.13;;
74941;SDS011;63506;49.346;8.798;2022-11-20T12:43:34;5.63;;;3.03;;
74941;SDS011;63506;49.346;8.798;2022-11-20T12:56:49;8.85;;;2.75;;
74941;SDS011;63506;49.346;8.798;2022-11-20T13:07:18;3.65;;;2.30;;
74941;SDS011;63506;49.346;8.798;2022-11-20T13:09:48;2.55;;;2.00;;
74941;SDS011;63506;49.346;8.798;2022-11-20T13:15:02;5.35;;;2.38;;
74941;SDS011;63506;49.346;8.798;2022-11-20T13:20:02;1.95;;;1.60;;
74941;SDS011;63506;49.346;8.798;2022-11-20T13:22:29;7.57;;;2.42;;
74941;SDS011;63506;49.346;8.798;2022-11-20T13:24:55;2.65;;;1.80;;
74941;SDS011;63506;49.346;8.798;2022-11-20T13:27:22;3.05;;;1.95;;
74941;SDS011;63506;49.346;8.798;2022-11-20T13:30:02;3.28;;;1.55;;
74941;SDS011;63506;49.346;8.798;2022-11-20T13:32:30;4.32;;;2.20;;
74941;SDS011;63506;49.346;8.798;2022-11-20T13:37:34;3.25;;;2.20;;
74941;SDS011;63506;49.346;8.798;2022-11-20T13:40:11;3.63;;;3.13;;
74941;SDS011;63506;49.346;8.798;2022-11-20T13:42:45;4.88;;;3.20;;
74941;SDS011;63506;49.346;8.798;2022-11-20T13:45:21;3.47;;;3.00;;
74941;SDS011;63506;49.346;8.798;2022-11-20T13:47:50;2.40;;;2.13;;
74941;SDS011;63506;49.346;8.798;2022-11-20T13:50:17;2.40;;;1.40;;
74941;SDS011;63506;49.346;8.798;2022-11-20T14:00:33;2.92;;;1.63;;
74941;SDS011;63506;49.346;8.798;2022-11-20T14:05:31;4.45;;;1.85;;
74941;SDS011;63506;49.346;8.798;2022-11-20T14:08:02;9.18;;;1.48;;
74941;SDS011;63506;49.346;8.798;2022-11-20T14:10:33;1.98;;;1.75;;
74941;SDS011;63506;49.346;8.798;2022-11-20T14:13:09;2.15;;;1.10;;
74941;SDS011;63506;49.346;8.798;2022-11-20T14:15:37;5.75;;;1.92;;
74941;SDS011;63506;49.346;8.798;2022-11-20T14:18:19;3.90;;;1.70;;
74941;SDS011;63506;49.346;8.798;2022-11-20T14:20:45;3.88;;;2.05;;
74941;SDS011;63506;49.346;8.798;2022-11-20T14:23:22;5.03;;;3.00;;
74941;SDS011;63506;49.346;8.798;2022-11-20T14:25:51;3.75;;;2.80;;
74941;SDS011;63506;49.346;8.798;2022-11-20T14:28:26;7.50;;;3.40;;
74941;SDS011;63506;49.346;8.798;2022-11-20T14:30:52;3.97;;;2.78;;
74941;SDS011;63506;49.346;8.798;2022-11-20T14:33:19;3.45;;;2.88;;
74941;SDS011;63506;49.346;8.798;2022-11-20T14:35:47;4.72;;;1.85;;
74941;SDS011;63506;49.346;8.798;2022-11-20T14:38:14;4.25;;;2.45;;
74941;SDS011;63506;49.346;8.798;2022-11-20T14:40:45;5.38;;;1.92;;
74941;SDS011;63506;49.346;8.798;2022-11-20T14:43:18;3.70;;;2.05;;
74941;SDS011;63506;49.346;8.798;2022-11-20T14:45:46;2.95;;;2.25;;
74941;SDS011;63506;49.346;8.798;2022-11-20T14:48:14;4.40;;;2.47;;
74941;SDS011;63506;49.346;8.798;2022-11-20T14:50:45;3.42;;;2.58;;
74941;SDS011;63506;49.346;8.798;2022-11-20T14:53:13;2.53;;;2.33;;
74941;SDS011;63506;49.346;8.798;2022-11-20T14:55:57;2.58;;;2.03;;
74941;SDS011;63506;49.346;8.798;2022-11-20T14:58:24;4.45;;;2.22;;
74941;SDS011;63506;49.346;8.798;2022-11-20T15:01:11;4.72;;;1.92;;
74941;SDS011;63506;49.346;8.798;2022-11-20T15:03:40;3.88;;;1.85;;
74941;SDS011;63506;49.346;8.798;2022-11-20T15:06:10;3.38;;;1.67;;
74941;SDS011;63506;49.346;8.798;2022-11-20T15:08:36;3.55;;;1.83;;
74941;SDS011;63506;49.346;8.798;2022-11-20T15:11:02;3.78;;;1.80;;
74941;SDS011;63506;49.346;8.798;2022-11-20T15:15:57;5.03;;;2.67;;
74941;SDS011;63506;49.346;8.798;2022-11-20T15:21:00;3.45;;;1.55;;
74941;SDS011;63506;49.346;8.798;2022-11-20T15:23:27;3.40;;;2.08;;
74941;SDS011;63506;49.346;8.798;2022-11-20T15:25:58;8.18;;;2.50;;
74941;SDS011;63506;49.346;8.798;2022-11-20T15:28:30;6.25;;;2.08;;
74941;SDS011;63506;49.346;8.798;2022-11-20T15:30:58;3.13;;;1.67;;
74941;SDS011;63506;49.346;8.798;2022-11-20T15:33:25;4.25;;;2.72;;
74941;SDS011;63506;49.346;8.798;2022-11-20T15:35:56;5.43;;;3.85;;
74941;SDS011;63506;49.346;8.798;2022-11-20T15:38:24;7.10;;;2.95;;
74941;SDS011;63506;49.346;8.798;2022-11-20T15:40:50;10.93;;;3.00;;
74941;SDS011;63506;49.346;8.798;2022-11-20T15:43:18;3.80;;;2.00;;
74941;SDS011;63506;49.346;8.798;2022-11-20T15:45:45;3.47;;;2.20;;
74941;SDS011;63506;49.346;8.798;2022-11-20T15:48:15;6.90;;;3.03;;
74941;SDS011;63506;49.346;8.798;2022-11-20T15:50:58;2.63;;;2.22;;
74941;SDS011;63506;49.346;8.798;2022-11-20T15:53:29;3.03;;;1.70;;
74941;SDS011;63506;49.346;8.798;2022-11-20T15:55:57;12.73;;;5.85;;
74941;SDS011;63506;49.346;8.798;2022-11-20T15:58:26;16.95;;;6.10;;
74941;SDS011;63506;49.346;8.798;2022-11-20T16:00:56;7.43;;;5.38;;
74941;SDS011;63506;49.346;8.798;2022-11-20T16:03:23;5.60;;;3.58;;
74941;SDS011;63506;49.346;8.798;2022-11-20T16:05:49;6.93;;;3.53;;
74941;SDS011;63506;49.346;8.798;2022-11-20T16:08:15;5.93;;;4.55;;
74941;SDS011;63506;49.346;8.798;2022-11-20T16:10:41;5.65;;;2.60;;
74941;SDS011;63506;49.346;8.798;2022-11-20T16:13:14;9.32;;;3.03;;
74941;SDS011;63506;49.346;8.798;2022-11-20T16:16:01;2.78;;;2.30;;
74941;SDS011;63506;49.346;8.798;2022-11-20T16:18:27;4.70;;;2.90;;
74941;SDS011;63506;49.346;8.798;2022-11-20T16:20:53;3.53;;;2.40;;
74941;SDS011;63506;49.346;8.798;2022-11-20T16:23:19;4.38;;;2.90;;
74941;SDS011;63506;49.346;8.798;2022-11-20T16:25:46;10.38;;;4.10;;
74941;SDS011;63506;49.346;8.798;2022-11-20T16:28:14;5.53;;;3.22;;
74941;SDS011;63506;49.346;8.798;2022-11-20T16:30:43;3.30;;;2.33;;
74941;SDS011;63506;49.346;8.798;2022-11-20T16:33:13;6.20;;;3.08;;
74941;SDS011;63506;49.346;8.798;2022-11-20T16:35:41;7.93;;;3.38;;
74941;SDS011;63506;49.346;8.798;2022-11-20T16:38:07;6.30;;;2.78;;
74941;SDS011;63506;49.346;8.798;2022-11-20T16:40:37;4.65;;;2.85;;